עמוד ראשי
METAR-TAF:

METAR-TAF

שדות תעופה :

עמאן, ירדן

קו רוחב: 31-59N, קו אורך: 035-59E, גובה: 767מטר

תצפית מזג אוויר נוכחית

הדו"ח נערך לפני 44דקות, בשעה 23:00 UTC
רוח רגועה
טמפרטורת 27 צלסיוס
לחות 24%
לחץ 1011 hPa
ראות: 7000מטר

METAR: OJAM 152300Z 00000KT 7000 NSC 27/05 Q1011 NOSIG

זמן: 02:44 (23:44 UTC)

תחזית

הדו"ח נערך לפני 44דקות, בשעה 23:00 UTC
תחזית בתוקף מ 16 ב 00 UTC עד 17 ב 06 UTC
רוח 8קשר מכיוון מערב/צפון-מערב
ראות: 6000מטר
הסתברות 40% :
זמנית מ -
16 ב 10 UTC עד 16 ב 16 UTC
רוח 14קשר מכיוון צפון-מערב
ראות: 4000מטר
אובך,

TAF: OJAM 152300Z 1600/1706 30008KT 6000 NSC PROB40 TEMPO 1610/1616 31014KT 4000 HZ

תצפיות ותחזיות מזג אוויר לגבי יותר מ- 4,000 שדות תעופה ברחבי העולם. דוחות METAR ו- TAF.

התחנות הזמינות מסומנות בנקודות צהובות ואדומות על גבי המפה.

העבר את העכבר לנקודה הצבעונית על מנת לראות את שם התחנה.

לאחר מכן, לחץ כדי לראות את תוכן ואת תחזיות מזג האוויר.

כדי לשנות את המפה: לחץ על הכפתורים הירוקים עם הפלוס השחור כדי להתקרב; על הכפתור הירוק עם המקף כדי להתרחק; או בחיצים הירוקים למפות סמוכות.


METAR-TAF: